createdAt,value
2018-09-19T00:01:54.110Z,0.0
2018-09-19T00:14:13.132Z,0.0
2018-09-19T00:24:52.026Z,0.0
2018-09-19T00:38:50.205Z,0.0
2018-09-19T00:49:35.151Z,0.0
2018-09-19T01:00:21.617Z,0.0
2018-09-19T01:10:54.210Z,0.0
2018-09-19T01:21:35.023Z,0.0
2018-09-19T01:32:05.512Z,0.0
2018-09-19T01:42:58.485Z,0.0
2018-09-19T01:54:10.777Z,0.0
2018-09-19T02:05:22.505Z,0.0
2018-09-19T02:18:29.756Z,0.0
2018-09-19T02:29:59.078Z,0.0
2018-09-19T02:41:26.935Z,0.0
2018-09-19T02:52:41.040Z,0.0
2018-09-19T03:16:21.655Z,0.0
2018-09-19T03:28:32.896Z,0.0
2018-09-19T03:39:47.397Z,0.0
2018-09-19T03:52:33.248Z,0.0
2018-09-19T04:03:52.804Z,0.0
2018-09-19T04:36:16.450Z,0.0
2018-09-19T04:48:10.664Z,0.0
2018-09-19T04:58:59.895Z,0.0
2018-09-19T05:11:15.376Z,5.0
2018-09-19T05:21:42.100Z,10.0
2018-09-19T05:32:17.856Z,25.0
2018-09-19T05:42:48.738Z,35.0
2018-09-19T05:53:19.200Z,60.0
2018-09-19T06:03:54.612Z,80.0
2018-09-19T06:14:09.012Z,95.0
2018-09-19T06:24:25.102Z,115.0
2018-09-19T06:35:05.253Z,135.0
2018-09-19T06:45:51.408Z,145.0
2018-09-19T06:56:17.782Z,155.0
2018-09-19T07:08:01.509Z,460.0
2018-09-19T07:20:13.480Z,665.0
2018-09-19T07:30:43.073Z,940.0
2018-09-19T07:43:10.390Z,760.0
2018-09-19T07:54:37.254Z,335.0
2018-09-19T08:04:51.389Z,435.0
2018-09-19T08:15:16.574Z,905.0
2018-09-19T08:25:47.947Z,1375.0
2018-09-19T08:36:02.569Z,930.0
2018-09-19T08:46:48.155Z,1950.0
2018-09-19T08:58:30.264Z,1760.0
2018-09-19T09:08:54.067Z,1895.0
2018-09-19T09:19:42.896Z,1700.0
2018-09-19T09:30:53.992Z,2140.0
2018-09-19T09:42:30.532Z,2325.0
2018-09-19T09:52:44.812Z,2350.0
2018-09-19T10:03:35.131Z,2075.0
2018-09-19T10:15:03.076Z,1835.0
2018-09-19T10:26:35.778Z,2515.0
2018-09-19T10:38:05.530Z,900.0
2018-09-19T10:48:51.817Z,610.0
2018-09-19T11:06:00.249Z,605.0
2018-09-19T11:17:13.102Z,585.0
2018-09-19T11:46:54.071Z,2095.0
2018-09-19T11:57:08.776Z,2575.0
2018-09-19T12:08:51.624Z,2530.0
2018-09-19T12:31:38.261Z,1285.0
2018-09-19T12:41:53.132Z,2335.0
2018-09-19T12:52:39.090Z,2380.0
2018-09-19T13:13:39.045Z,2515.0
2018-09-19T13:23:51.531Z,2160.0
2018-09-19T13:34:08.120Z,1885.0
2018-09-19T13:44:52.849Z,1885.0
2018-09-19T13:55:07.266Z,2070.0
2018-09-19T14:05:52.339Z,1870.0
2018-09-19T14:16:06.493Z,1855.0
2018-09-19T14:26:21.055Z,1640.0
2018-09-19T14:36:32.954Z,1570.0
2018-09-19T14:46:47.640Z,1460.0
2018-09-19T14:57:00.231Z,1275.0
2018-09-19T15:07:13.608Z,1075.0
2018-09-19T15:17:24.953Z,315.0
2018-09-19T15:27:39.670Z,275.0
2018-09-19T15:38:24.918Z,260.0
2018-09-19T15:49:09.521Z,225.0
2018-09-19T15:59:23.325Z,175.0
2018-09-19T16:09:38.213Z,170.0
2018-09-19T16:19:52.879Z,140.0
2018-09-19T16:30:07.005Z,120.0
2018-09-19T16:40:28.496Z,95.0
2018-09-19T16:50:42.021Z,55.0
2018-09-19T17:01:27.994Z,45.0
2018-09-19T17:11:42.781Z,35.0
2018-09-19T17:21:56.298Z,20.0
2018-09-19T17:32:10.509Z,10.0
2018-09-19T17:53:12.779Z,0.0
2018-09-19T18:03:58.329Z,0.0
2018-09-19T18:14:13.339Z,0.0
2018-09-19T18:24:27.854Z,0.0
2018-09-19T18:35:13.374Z,0.0
2018-09-19T18:45:27.460Z,0.0
2018-09-19T18:56:12.961Z,0.0
2018-09-19T19:06:27.251Z,0.0
2018-09-19T19:16:40.455Z,0.0
2018-09-19T19:26:52.637Z,0.0
2018-09-19T19:37:06.129Z,0.0
2018-09-19T19:47:22.806Z,0.0
2018-09-19T19:57:36.704Z,0.0
2018-09-19T20:07:48.062Z,0.0
2018-09-19T20:18:02.144Z,0.0
2018-09-19T20:28:47.677Z,0.0
2018-09-19T20:39:21.736Z,0.0
2018-09-19T20:49:35.040Z,0.0
2018-09-19T21:00:19.789Z,0.0
2018-09-19T21:10:33.292Z,0.0
2018-09-19T21:20:45.563Z,0.0
2018-09-19T21:30:59.867Z,0.0
2018-09-19T21:41:45.216Z,0.0
2018-09-19T21:51:59.387Z,0.0
2018-09-19T22:02:14.211Z,0.0
2018-09-19T22:12:27.897Z,0.0
2018-09-19T22:22:41.994Z,0.0
2018-09-19T22:32:56.384Z,0.0
2018-09-19T22:43:10.390Z,0.0
2018-09-19T22:53:24.008Z,0.0
2018-09-19T23:03:38.093Z,0.0
2018-09-19T23:13:50.210Z,0.0
2018-09-19T23:24:05.157Z,0.0
2018-09-19T23:34:50.200Z,0.0
2018-09-19T23:45:35.954Z,0.0
2018-09-19T23:55:50.213Z,0.0
